createdAt,value
2018-11-22T00:00:03.123Z,68.17
2018-11-22T00:02:45.383Z,67.85
2018-11-22T00:05:16.978Z,67.76
2018-11-22T00:07:47.100Z,67.43
2018-11-22T00:10:17.138Z,67.78
2018-11-22T00:12:47.227Z,67.77
2018-11-22T00:15:17.796Z,67.40
2018-11-22T00:17:48.262Z,67.20
2018-11-22T00:20:18.693Z,67.02
2018-11-22T00:22:48.762Z,66.81
2018-11-22T00:25:21.615Z,66.44
2018-11-22T00:27:50.465Z,66.43
2018-11-22T00:30:22.222Z,66.61
2018-11-22T00:32:52.260Z,66.82
2018-11-22T00:35:22.686Z,66.60
2018-11-22T00:37:53.195Z,66.73
2018-11-22T00:40:24.749Z,67.05
2018-11-22T00:42:54.971Z,67.53
2018-11-22T00:45:26.523Z,67.57
2018-11-22T00:47:56.570Z,67.41
2018-11-22T00:50:26.800Z,67.54
2018-11-22T00:52:56.847Z,67.24
2018-11-22T00:55:27.762Z,67.31
2018-11-22T00:57:58.147Z,67.62
2018-11-22T01:00:29.404Z,67.57
2018-11-22T01:02:59.478Z,67.88
2018-11-22T01:05:29.696Z,68.34
2018-11-22T01:07:59.785Z,68.40
2018-11-22T01:10:30.244Z,68.05
2018-11-22T01:13:01.192Z,67.95
2018-11-22T01:15:31.273Z,68.03
2018-11-22T01:18:01.293Z,68.30
2018-11-22T01:20:31.654Z,68.04
2018-11-22T01:23:01.784Z,68.17
2018-11-22T01:25:31.851Z,68.24
2018-11-22T01:28:01.931Z,68.23
2018-11-22T01:30:31.937Z,68.08
2018-11-22T01:33:02.442Z,68.41
2018-11-22T01:35:32.519Z,68.16
2018-11-22T01:38:02.535Z,67.92
2018-11-22T01:40:32.531Z,67.95
2018-11-22T01:43:02.633Z,67.96
2018-11-22T01:45:32.656Z,67.88
2018-11-22T01:48:02.790Z,68.16
2018-11-22T01:50:33.217Z,68.42
2018-11-22T01:53:03.232Z,68.42
2018-11-22T01:55:33.248Z,68.33
2018-11-22T01:58:03.402Z,68.57
2018-11-22T02:00:33.436Z,68.35
2018-11-22T02:03:03.518Z,68.49
2018-11-22T02:05:33.690Z,68.47
2018-11-22T02:08:03.726Z,68.47
2018-11-22T02:10:33.740Z,68.50
2018-11-22T02:13:03.922Z,68.44
2018-11-22T02:15:34.006Z,68.23
2018-11-22T02:18:03.996Z,68.34
2018-11-22T02:20:34.510Z,68.38
2018-11-22T02:23:04.542Z,68.21
2018-11-22T02:25:34.593Z,68.00
2018-11-22T02:28:04.710Z,68.05
2018-11-22T02:30:34.759Z,68.30
2018-11-22T02:33:04.776Z,68.23
2018-11-22T02:35:35.238Z,68.49
2018-11-22T02:38:05.287Z,68.61
2018-11-22T02:40:35.339Z,68.70
2018-11-22T02:43:07.503Z,68.53
2018-11-22T02:45:37.543Z,68.46
2018-11-22T02:48:07.648Z,68.80
2018-11-22T02:50:37.796Z,68.91
2018-11-22T02:53:08.253Z,68.56
2018-11-22T02:55:39.367Z,68.30
2018-11-22T02:58:09.453Z,68.30
2018-11-22T03:00:40.941Z,68.08
2018-11-22T03:03:12.282Z,68.07
2018-11-22T03:05:42.504Z,67.87
2018-11-22T03:08:12.521Z,67.89
2018-11-22T03:10:42.573Z,68.05
2018-11-22T03:13:14.357Z,67.74
2018-11-22T03:15:44.413Z,67.70
2018-11-22T03:18:14.471Z,68.08
2018-11-22T03:20:44.642Z,67.83
2018-11-22T03:23:14.707Z,67.86
2018-11-22T03:25:45.244Z,68.04
2018-11-22T03:28:15.840Z,68.25
2018-11-22T03:30:45.858Z,68.24
2018-11-22T03:33:15.888Z,67.95
2018-11-22T03:35:46.158Z,68.16
2018-11-22T03:38:16.165Z,68.16
2018-11-22T03:40:46.951Z,68.09
2018-11-22T03:43:22.721Z,68.09
2018-11-22T03:45:52.732Z,68.18
2018-11-22T03:48:22.782Z,68.40
2018-11-22T03:50:52.944Z,68.35
2018-11-22T03:53:22.962Z,68.60
2018-11-22T03:55:52.984Z,68.56
2018-11-22T03:58:23.104Z,68.64
2018-11-22T04:00:53.091Z,68.08
2018-11-22T04:03:23.094Z,67.91
2018-11-22T04:05:53.229Z,68.14
2018-11-22T04:08:23.245Z,68.33
2018-11-22T04:10:53.248Z,67.87
2018-11-22T04:13:23.310Z,68.14
2018-11-22T04:15:53.339Z,68.34
2018-11-22T04:18:23.343Z,68.51
2018-11-22T04:20:53.422Z,68.36
2018-11-22T04:23:23.440Z,68.58
2018-11-22T04:25:53.456Z,68.54
2018-11-22T04:28:23.505Z,68.83
2018-11-22T04:30:53.520Z,68.82
2018-11-22T04:33:23.599Z,68.75
2018-11-22T04:35:53.736Z,68.47
2018-11-22T04:38:23.779Z,68.45
2018-11-22T04:40:53.811Z,68.39
2018-11-22T04:43:23.980Z,68.71
2018-11-22T04:45:53.977Z,68.62
2018-11-22T04:48:24.048Z,68.62
2018-11-22T04:50:54.543Z,69.14
2018-11-22T04:53:24.614Z,69.12
2018-11-22T04:55:54.768Z,68.88
2018-11-22T04:58:25.037Z,68.75
2018-11-22T05:00:55.105Z,69.23
2018-11-22T05:03:25.173Z,69.10
2018-11-22T05:05:55.291Z,69.27
2018-11-22T05:08:25.480Z,69.30
2018-11-22T05:10:55.533Z,69.37
2018-11-22T05:13:25.651Z,69.43
2018-11-22T05:15:55.841Z,68.94
2018-11-22T05:18:25.845Z,68.50
2018-11-22T05:20:55.906Z,68.83
2018-11-22T05:23:25.955Z,68.93
2018-11-22T05:25:55.999Z,69.27
2018-11-22T05:28:26.159Z,69.04
2018-11-22T05:30:56.575Z,69.08
2018-11-22T05:33:26.662Z,69.03
2018-11-22T05:35:56.889Z,68.92
2018-11-22T05:38:26.951Z,68.90
2018-11-22T05:40:57.021Z,68.59
2018-11-22T05:43:27.089Z,68.69
2018-11-22T05:45:57.361Z,68.71
2018-11-22T05:48:27.365Z,68.74
2018-11-22T05:50:57.549Z,68.72
2018-11-22T05:53:28.365Z,68.53
2018-11-22T05:56:00.604Z,68.33
2018-11-22T05:58:30.684Z,68.52
2018-11-22T06:01:00.787Z,68.52
2018-11-22T06:03:31.244Z,68.33
2018-11-22T06:06:04.743Z,67.97
2018-11-22T06:08:34.776Z,68.21
2018-11-22T06:11:04.910Z,68.12
2018-11-22T06:13:35.973Z,67.82
2018-11-22T06:16:06.192Z,67.87
2018-11-22T06:18:38.410Z,68.17
2018-11-22T06:21:08.581Z,68.09
2018-11-22T06:23:39.434Z,68.16
2018-11-22T06:26:09.458Z,68.29
2018-11-22T06:28:40.500Z,67.94
2018-11-22T06:31:10.583Z,68.13
2018-11-22T06:33:40.660Z,68.09
2018-11-22T06:36:12.595Z,68.26
2018-11-22T06:38:43.409Z,68.29
2018-11-22T06:41:13.577Z,68.12
2018-11-22T06:43:43.906Z,68.20
2018-11-22T06:46:13.922Z,68.16
2018-11-22T06:48:44.836Z,67.80
2018-11-22T06:51:15.084Z,67.63
2018-11-22T06:53:45.866Z,68.14
2018-11-22T06:56:15.880Z,67.97
2018-11-22T06:58:46.062Z,68.21
2018-11-22T07:01:16.079Z,68.38
2018-11-22T07:03:46.192Z,68.49
2018-11-22T07:06:17.414Z,68.40
2018-11-22T07:08:48.381Z,68.47
2018-11-22T07:11:18.809Z,68.02
2018-11-22T07:13:49.065Z,68.35
2018-11-22T07:16:19.904Z,68.47
2018-11-22T07:18:50.800Z,68.78
2018-11-22T07:21:20.920Z,69.05
2018-11-22T07:23:51.757Z,69.18
2018-11-22T07:26:21.890Z,69.42
2018-11-22T07:28:52.449Z,69.32
2018-11-22T07:31:23.283Z,68.80
2018-11-22T07:33:54.078Z,68.70
2018-11-22T07:36:25.218Z,68.53
2018-11-22T07:38:55.282Z,68.77
2018-11-22T07:41:26.319Z,69.13
2018-11-22T07:43:56.669Z,68.76
2018-11-22T07:46:27.541Z,68.65
2018-11-22T07:48:57.600Z,68.69
2018-11-22T07:51:27.954Z,68.73
2018-11-22T07:53:58.061Z,68.92
2018-11-22T07:56:28.088Z,68.86
2018-11-22T07:58:59.146Z,68.80
2018-11-22T08:01:29.413Z,68.80
2018-11-22T08:04:01.038Z,69.02
2018-11-22T08:06:31.371Z,69.21
2018-11-22T08:09:02.250Z,69.19
2018-11-22T08:11:33.083Z,69.26
2018-11-22T08:14:03.267Z,69.66
2018-11-22T08:16:34.921Z,69.84
2018-11-22T08:19:05.797Z,69.72
2018-11-22T08:21:38.328Z,69.94
2018-11-22T08:24:06.813Z,70.27
2018-11-22T08:26:37.632Z,70.12
2018-11-22T08:29:08.932Z,70.36
2018-11-22T08:31:39.039Z,70.56
2018-11-22T08:34:09.173Z,70.78
2018-11-22T08:36:39.221Z,70.72
2018-11-22T08:39:10.692Z,70.52
2018-11-22T08:44:10.062Z,69.92
2018-11-22T08:46:40.076Z,70.07
2018-11-22T08:49:11.665Z,69.98
2018-11-22T08:51:43.930Z,70.06
2018-11-22T08:54:13.939Z,70.05
2018-11-22T08:56:43.949Z,70.14
2018-11-22T08:59:14.122Z,69.61
2018-11-22T09:01:45.023Z,69.93
2018-11-22T09:04:15.831Z,69.98
2018-11-22T09:06:48.098Z,70.28
2018-11-22T09:09:18.147Z,69.79
2018-11-22T09:11:48.992Z,69.57
2018-11-22T09:14:20.239Z,69.69
2018-11-22T09:16:50.942Z,69.33
2018-11-22T09:19:21.991Z,69.80
2018-11-22T09:21:52.148Z,70.22
2018-11-22T09:24:24.194Z,69.96
2018-11-22T09:26:54.594Z,70.05
2018-11-22T09:29:25.051Z,70.15
2018-11-22T09:31:55.870Z,69.72
2018-11-22T09:34:25.971Z,69.97
2018-11-22T09:36:56.945Z,69.74
2018-11-22T09:39:27.713Z,69.90
2018-11-22T09:41:57.864Z,69.85
2018-11-22T09:44:28.077Z,69.44
2018-11-22T09:46:58.853Z,68.98
2018-11-22T09:49:28.835Z,69.02
2018-11-22T09:51:58.851Z,68.83
2018-11-22T09:54:28.838Z,68.78
2018-11-22T09:56:58.815Z,69.20
2018-11-22T09:59:28.832Z,69.30
2018-11-22T10:01:59.079Z,69.48
2018-11-22T10:04:29.097Z,69.27
2018-11-22T10:06:59.740Z,69.59
2018-11-22T10:09:30.557Z,69.71
2018-11-22T10:14:35.137Z,69.80
2018-11-22T10:17:05.169Z,69.06
2018-11-22T10:19:35.195Z,69.40
2018-11-22T10:22:08.908Z,69.25
2018-11-22T10:24:38.880Z,69.21
2018-11-22T10:27:08.896Z,69.38
2018-11-22T10:29:39.208Z,69.79
2018-11-22T10:32:09.516Z,70.17
2018-11-22T10:34:40.575Z,70.45
2018-11-22T10:37:10.734Z,70.38
2018-11-22T10:39:40.722Z,70.10
2018-11-22T10:42:10.738Z,70.16
2018-11-22T10:44:41.065Z,70.25
2018-11-22T10:47:11.076Z,70.10
2018-11-22T10:49:41.066Z,70.16
2018-11-22T10:52:12.445Z,69.92
2018-11-22T10:54:42.551Z,70.03
2018-11-22T10:57:14.829Z,69.75
2018-11-22T10:59:45.177Z,69.65
2018-11-22T11:02:32.342Z,69.92
2018-11-22T11:05:19.662Z,69.80
2018-11-22T11:07:54.155Z,70.24
2018-11-22T11:10:24.197Z,70.06
2018-11-22T11:12:54.214Z,70.01
2018-11-22T11:15:24.176Z,69.69
2018-11-22T11:17:54.289Z,69.50
2018-11-22T11:20:24.238Z,70.10
2018-11-22T11:22:54.274Z,70.36
2018-11-22T11:25:24.398Z,70.12
2018-11-22T11:27:54.395Z,69.84
2018-11-22T11:30:24.476Z,69.76
2018-11-22T11:32:54.622Z,70.13
2018-11-22T11:35:25.605Z,70.04
2018-11-22T11:37:55.688Z,69.98
2018-11-22T11:40:27.422Z,69.84
2018-11-22T11:42:58.186Z,69.89
2018-11-22T11:45:29.592Z,69.85
2018-11-22T11:47:59.698Z,69.32
2018-11-22T11:50:29.701Z,68.85
2018-11-22T11:53:00.660Z,69.25
2018-11-22T11:55:30.828Z,69.82
2018-11-22T11:58:01.050Z,69.44
2018-11-22T12:00:35.936Z,69.23
2018-11-22T12:03:06.467Z,69.37
2018-11-22T12:05:36.540Z,69.08
2018-11-22T12:08:06.917Z,69.17
2018-11-22T12:10:37.347Z,68.94
2018-11-22T12:13:07.980Z,68.93
2018-11-22T12:15:38.071Z,68.76
2018-11-22T12:18:08.274Z,68.78
2018-11-22T12:20:38.537Z,68.56
2018-11-22T12:23:08.485Z,68.78
2018-11-22T12:25:41.257Z,68.52
2018-11-22T12:28:11.212Z,68.39
2018-11-22T12:30:41.970Z,68.56
2018-11-22T12:33:33.308Z,68.57
2018-11-22T12:36:20.201Z,68.44
2018-11-22T12:38:51.175Z,68.42
2018-11-22T12:41:21.291Z,68.59
2018-11-22T12:43:51.260Z,68.59
2018-11-22T12:46:21.292Z,68.39
2018-11-22T12:48:51.310Z,68.29
2018-11-22T12:51:21.300Z,67.88
2018-11-22T12:53:51.407Z,67.39
2018-11-22T12:56:21.386Z,68.11
2018-11-22T12:58:51.346Z,68.05
2018-11-22T13:01:21.704Z,68.15
2018-11-22T13:03:51.753Z,68.04
2018-11-22T13:06:21.732Z,67.89
2018-11-22T13:08:51.796Z,67.95
2018-11-22T13:11:21.754Z,67.76
2018-11-22T13:13:51.785Z,67.73
2018-11-22T13:16:22.041Z,67.75
2018-11-22T13:18:52.026Z,67.96
2018-11-22T13:21:22.039Z,67.87
2018-11-22T13:23:52.198Z,68.22
2018-11-22T13:26:22.158Z,68.65
2018-11-22T13:28:52.169Z,68.87
2018-11-22T13:31:22.602Z,68.93
2018-11-22T13:33:52.609Z,68.67
2018-11-22T13:36:22.619Z,68.90
2018-11-22T13:38:52.877Z,68.85
2018-11-22T13:41:23.676Z,68.49
2018-11-22T13:43:53.988Z,68.44
2018-11-22T13:46:24.253Z,68.29
2018-11-22T13:48:54.319Z,68.27
2018-11-22T13:51:24.596Z,68.25
2018-11-22T13:53:56.925Z,68.59
2018-11-22T13:56:26.922Z,68.89
2018-11-22T13:58:57.013Z,68.95
2018-11-22T14:01:27.077Z,69.11
2018-11-22T14:03:57.050Z,68.88
2018-11-22T14:06:27.010Z,68.79
2018-11-22T14:08:57.070Z,68.87
2018-11-22T14:11:27.180Z,68.84
2018-11-22T14:13:57.190Z,68.66
2018-11-22T14:16:27.400Z,68.52
2018-11-22T14:18:57.400Z,68.86
2018-11-22T14:21:27.549Z,68.84
2018-11-22T14:23:58.215Z,68.86
2018-11-22T14:26:28.661Z,68.48
2018-11-22T14:28:58.631Z,68.46
2018-11-22T14:31:28.667Z,68.42
2018-11-22T14:33:58.660Z,68.69
2018-11-22T14:36:28.671Z,68.61
2018-11-22T14:38:59.001Z,68.64
2018-11-22T14:41:28.967Z,68.95
2018-11-22T14:43:59.741Z,68.94
2018-11-22T14:46:29.772Z,68.86
2018-11-22T14:48:59.746Z,69.43
2018-11-22T14:51:33.233Z,69.26
2018-11-22T14:54:03.256Z,69.05
2018-11-22T14:56:33.280Z,69.22
2018-11-22T14:59:03.287Z,69.03
2018-11-22T15:01:33.499Z,69.33
2018-11-22T15:04:03.475Z,69.82
2018-11-22T15:06:33.445Z,69.63
2018-11-22T15:09:03.758Z,69.68
2018-11-22T15:11:33.727Z,69.71
2018-11-22T15:14:03.698Z,69.53
2018-11-22T15:16:33.716Z,69.58
2018-11-22T15:19:03.936Z,69.70
2018-11-22T15:21:33.889Z,69.62
2018-11-22T15:24:03.880Z,69.93
2018-11-22T15:26:33.969Z,70.23
2018-11-22T15:29:03.988Z,69.84
2018-11-22T15:31:34.199Z,69.69
2018-11-22T15:34:04.187Z,69.86
2018-11-22T15:36:34.351Z,69.53
2018-11-22T15:39:04.399Z,69.27
2018-11-22T15:41:34.387Z,69.81
2018-11-22T15:44:04.355Z,70.07
2018-11-22T15:46:34.431Z,69.95
2018-11-22T15:49:04.415Z,69.85
2018-11-22T15:51:34.432Z,69.88
2018-11-22T15:54:04.672Z,70.05
2018-11-22T16:01:45.714Z,69.28
2018-11-22T16:04:14.394Z,68.96
2018-11-22T16:06:43.106Z,68.96
2018-11-22T16:09:12.509Z,69.49
2018-11-22T16:11:41.256Z,70.08
2018-11-22T16:14:09.945Z,70.51
2018-11-22T16:16:38.678Z,70.23
2018-11-22T16:19:07.419Z,70.07
2018-11-22T16:21:36.086Z,70.47
2018-11-22T16:24:04.906Z,70.58
2018-11-22T16:26:33.644Z,70.32
2018-11-22T16:29:02.339Z,70.99
2018-11-22T16:31:31.050Z,70.99
2018-11-22T16:33:59.749Z,71.69
2018-11-22T16:36:28.525Z,71.78
2018-11-22T16:38:57.644Z,71.62
2018-11-22T16:41:27.530Z,71.88
2018-11-22T16:43:59.629Z,72.23
2018-11-22T16:46:26.262Z,72.34
2018-11-22T16:48:55.674Z,72.36
2018-11-22T16:51:24.966Z,72.73
2018-11-22T16:53:54.734Z,72.58
2018-11-22T16:56:24.181Z,72.57
2018-11-22T16:58:53.449Z,72.00
2018-11-22T17:01:27.629Z,72.45
2018-11-22T17:03:51.426Z,72.17
2018-11-22T17:06:20.518Z,72.15
2018-11-22T17:08:49.331Z,72.60
2018-11-22T17:11:18.149Z,71.90
2018-11-22T17:13:47.338Z,71.99
2018-11-22T17:16:18.219Z,71.83
2018-11-22T17:18:48.697Z,72.04
2018-11-22T17:21:18.410Z,72.32
2018-11-22T17:23:47.223Z,72.43
2018-11-22T17:26:17.037Z,72.23
2018-11-22T17:28:47.342Z,72.28
2018-11-22T17:31:17.299Z,72.02
2018-11-22T17:33:46.084Z,72.10
2018-11-22T17:36:16.438Z,72.26
2018-11-22T17:38:47.201Z,71.28
2018-11-22T17:41:17.174Z,71.15
2018-11-22T17:43:45.888Z,70.84
2018-11-22T17:46:14.856Z,71.20
2018-11-22T17:48:43.572Z,71.33
2018-11-22T17:51:12.345Z,71.37
2018-11-22T17:53:41.215Z,71.57
2018-11-22T17:56:09.973Z,71.67
2018-11-22T17:58:40.647Z,71.32
2018-11-22T18:01:14.511Z,71.54
2018-11-22T18:03:39.499Z,72.15
2018-11-22T18:06:08.398Z,72.53
2018-11-22T18:08:37.334Z,72.44
2018-11-22T18:11:07.477Z,72.76
2018-11-22T18:13:37.387Z,72.34
2018-11-22T18:16:06.310Z,72.32
2018-11-22T18:18:37.092Z,72.34
2018-11-22T18:21:07.378Z,72.57
2018-11-22T18:23:36.402Z,72.51
2018-11-22T18:26:05.798Z,71.58
2018-11-22T18:28:34.690Z,71.51
2018-11-22T18:31:03.476Z,71.51
2018-11-22T18:33:32.322Z,71.71
2018-11-22T18:36:01.257Z,71.75
2018-11-22T18:38:30.041Z,71.50
2018-11-22T18:40:58.799Z,71.85
2018-11-22T18:43:27.588Z,71.73
2018-11-22T18:45:56.294Z,71.69
2018-11-22T18:48:25.092Z,71.66
2018-11-22T18:50:54.018Z,71.72
2018-11-22T18:53:22.975Z,71.44
2018-11-22T18:55:59.266Z,71.36
2018-11-22T18:58:27.444Z,71.46
2018-11-22T19:00:56.201Z,71.61
2018-11-22T19:03:25.090Z,71.33
2018-11-22T19:05:53.951Z,71.88
2018-11-22T19:08:23.703Z,71.73
2018-11-22T19:10:51.965Z,71.89
2018-11-22T19:13:20.795Z,71.92
2018-11-22T19:15:50.028Z,71.98
2018-11-22T19:18:19.062Z,72.64
2018-11-22T19:20:47.943Z,72.54
2018-11-22T19:23:17.213Z,72.52
2018-11-22T19:25:46.098Z,72.91
2018-11-22T19:28:14.995Z,72.80
2018-11-22T19:30:45.247Z,73.37
2018-11-22T19:33:15.631Z,73.36
2018-11-22T19:35:45.888Z,73.43
2018-11-22T19:38:15.335Z,73.08
2018-11-22T19:40:44.603Z,72.87
2018-11-22T19:43:13.526Z,73.17
2018-11-22T19:45:44.086Z,73.49
2018-11-22T19:48:12.938Z,73.36
2018-11-22T19:50:41.697Z,73.40
2018-11-22T19:53:11.961Z,73.72
2018-11-22T19:55:41.383Z,73.90
2018-11-22T19:58:11.615Z,73.79
2018-11-22T20:00:40.390Z,73.66
2018-11-22T20:03:09.761Z,72.97
2018-11-22T20:05:39.844Z,73.23
2018-11-22T20:08:10.276Z,73.31
2018-11-22T20:10:40.654Z,73.09
2018-11-22T20:13:09.537Z,73.49
2018-11-22T20:15:38.791Z,73.68
2018-11-22T20:18:08.767Z,73.77
2018-11-22T20:20:37.495Z,73.57
2018-11-22T20:23:06.475Z,74.21
2018-11-22T20:25:35.199Z,74.66
2018-11-22T20:28:03.922Z,74.75
2018-11-22T20:30:34.102Z,74.65
2018-11-22T20:33:03.069Z,74.27
2018-11-22T20:35:32.735Z,74.38
2018-11-22T20:38:01.587Z,74.28
2018-11-22T20:40:30.479Z,74.80
2018-11-22T20:42:59.778Z,74.67
2018-11-22T20:45:29.320Z,74.65
2018-11-22T20:47:59.842Z,75.12
2018-11-22T20:50:30.656Z,75.21
2018-11-22T20:52:59.378Z,75.11
2018-11-22T20:55:29.485Z,75.00
2018-11-22T20:57:59.919Z,75.56
2018-11-22T21:00:29.967Z,75.16
2018-11-22T21:02:58.752Z,75.19
2018-11-22T21:05:29.191Z,75.11
2018-11-22T21:07:58.071Z,74.85
2018-11-22T21:10:28.103Z,74.55
2018-11-22T21:12:57.299Z,74.67
2018-11-22T21:15:27.392Z,74.46
2018-11-22T21:17:58.459Z,74.52
2018-11-22T21:20:28.832Z,74.82
2018-11-22T21:22:57.649Z,74.82
2018-11-22T21:25:26.925Z,74.62
2018-11-22T21:30:33.849Z,74.90
2018-11-22T21:33:03.048Z,74.54
2018-11-22T21:35:32.150Z,74.16
2018-11-22T21:38:01.879Z,74.44
2018-11-22T21:40:31.327Z,74.58
2018-11-22T21:43:00.013Z,74.26
2018-11-22T21:45:29.548Z,74.13
2018-11-22T21:47:58.270Z,74.42
2018-11-22T21:50:28.176Z,74.77
2018-11-22T21:52:57.486Z,74.67
2018-11-22T21:55:29.413Z,74.10
2018-11-22T21:57:59.534Z,74.62
2018-11-22T22:00:33.372Z,74.30
2018-11-22T22:03:03.774Z,73.68
2018-11-22T22:05:32.726Z,74.17
2018-11-22T22:08:01.649Z,74.05
2018-11-22T22:10:30.912Z,74.17
2018-11-22T22:12:59.991Z,73.91
2018-11-22T22:15:29.880Z,73.20
2018-11-22T22:17:58.745Z,73.40
2018-11-22T22:20:35.008Z,73.09
2018-11-22T22:23:04.050Z,73.35
2018-11-22T22:25:33.158Z,72.70
2018-11-22T22:28:02.367Z,72.72
2018-11-22T22:30:33.795Z,72.96
2018-11-22T22:33:04.100Z,73.57
2018-11-22T22:35:32.852Z,73.23
2018-11-22T22:38:01.746Z,73.33
2018-11-22T22:40:33.199Z,73.93
2018-11-22T22:43:02.602Z,73.90
2018-11-22T22:45:32.573Z,73.31
2018-11-22T22:48:01.400Z,73.34
2018-11-22T22:50:31.316Z,73.44
2018-11-22T22:53:00.751Z,73.24
2018-11-22T22:55:29.950Z,73.70
2018-11-22T22:57:58.730Z,74.10
2018-11-22T23:00:33.302Z,74.36
2018-11-22T23:03:08.671Z,74.90
2018-11-22T23:05:38.081Z,74.90
2018-11-22T23:08:06.924Z,74.94
2018-11-22T23:10:35.816Z,74.33
2018-11-22T23:13:05.889Z,74.07
2018-11-22T23:15:34.745Z,73.77
2018-11-22T23:18:03.604Z,73.40
2018-11-22T23:20:33.722Z,73.46
2018-11-22T23:23:02.482Z,74.48
2018-11-22T23:25:31.398Z,74.50
2018-11-22T23:28:00.260Z,74.36
2018-11-22T23:30:31.815Z,74.52
2018-11-22T23:33:02.137Z,74.58
2018-11-22T23:35:30.844Z,74.43
2018-11-22T23:37:59.662Z,74.34
2018-11-22T23:40:29.882Z,74.40
2018-11-22T23:42:58.720Z,74.14
2018-11-22T23:45:29.458Z,74.28
2018-11-22T23:47:58.243Z,73.91
2018-11-22T23:50:28.311Z,74.45
2018-11-22T23:52:58.115Z,74.15
2018-11-22T23:55:26.984Z,74.54
2018-11-22T23:57:55.683Z,74.67
